YCA weather

Courtenay Airpark
Courtenay, British Columbia, Canada

Public forecast

Using degrees Celsius for public forecast. Weather courtesy of forecast.io.

Closest aviation weather report (METAR) to Courtenay Airpark

Closest report is Comox Airport, 4.1 nm (7.7 km) ENE. Retrieved 2019/10/21 18:42 UTC (13 minutes ago):

CYQQ 211842Z 15012G17KT 1 1/2SM RA BR OVC005 10/09 A3006 RMK SF8 VIS VRB 1-2 CIG VRB 3-7 SLP179

Closest aviation forecast (TAF) to Courtenay Airpark

Closest forecast is Comox Airport, 4.1 nm (7.7 km) ENE. Retrieved 2019/10/21 18:42 UTC (13 minutes ago):

TAF CYQQ 211739Z 2118/2218 14018G30KT 2SM RA BR OVC005 TEMPO 2118/2122 6SM -RA BR SCT005 OVC020 FM212200 14018G30KT P6SM -RA SCT006 OVC020 TEMPO 2122/2202 3SM -RA BR OVC006 FM220200 14012KT P6SM SCT006 OVC020 TEMPO 2202/2204 P6SM -RA OVC006 FM220400 16005KT 6SM BR SCT006 OVC012 TEMPO 2204/2213 SCT003 OVC006 FM221300 30005KT P6SM FEW006 SCT012 RMK NXT FCST BY 220000Z